Time;durP1;ratioP1;P1;durP2;ratioP2;P2;SDS_P1;SDS_P2;PMS_P1;PMS_P2;Temp;Humidity;BMP_temperature;BMP_pressure;BME280_temperature;BME280_humidity;BME280_pressure;Samples;Min_cycle;Max_cycle;Signal;HPM_P1;HPM_P2
2022/01/20 00:00:49;;;;;;;16.13;2.72;;;6.30;85.40;;;;;;5068143;28;20037;-82
2022/01/20 00:03:19;;;;;;;10.52;2.50;;;6.40;85.40;;;;;;5069464;28;20047;-82
2022/01/20 00:27:50;;;;;;;6.13;1.88;;;6.40;85.00;;;;;;5075807;28;20101;-82
2022/01/20 00:30:42;;;;;;;12.20;2.45;;;6.40;85.10;;;;;;5070239;28;20564;-81
2022/01/20 00:38:32;;;;;;;11.10;2.30;;;6.30;84.90;;;;;;5055825;28;20082;-81
2022/01/20 00:40:58;;;;;;;8.98;2.50;;;6.40;85.00;;;;;;5062444;28;20475;-82
2022/01/20 00:43:24;;;;;;;11.25;2.65;;;6.40;84.90;;;;;;5065381;28;20051;-81
2022/01/20 00:45:50;;;;;;;9.48;2.30;;;6.40;84.90;;;;;;5070080;28;20045;-82
2022/01/20 00:48:16;;;;;;;10.55;2.55;;;6.40;84.80;;;;;;5065779;28;20029;-81
2022/01/20 00:50:42;;;;;;;6.25;2.13;;;6.40;84.80;;;;;;5064280;28;20027;-81
2022/01/20 00:53:07;;;;;;;9.38;2.00;;;6.40;85.50;;;;;;5063152;28;20033;-80
2022/01/20 00:55:33;;;;;;;8.65;1.98;;;6.40;84.80;;;;;;5062850;28;20162;-80
2022/01/20 00:57:59;;;;;;;6.97;1.80;;;6.40;84.70;;;;;;5057457;28;20078;-80
2022/01/20 01:00:25;;;;;;;5.97;1.63;;;6.50;84.70;;;;;;5065829;28;20177;-80
2022/01/20 01:02:51;;;;;;;9.65;2.25;;;6.50;85.30;;;;;;5069545;28;20497;-81
2022/01/20 01:05:16;;;;;;;11.68;1.98;;;6.50;84.60;;;;;;5067942;28;20031;-80
2022/01/20 01:10:09;;;;;;;7.53;1.80;;;6.60;84.70;;;;;;5064554;28;20119;-80
2022/01/20 01:12:49;;;;;;;5.53;1.48;;;6.60;84.60;;;;;;5063069;28;20020;-80
2022/01/20 01:15:23;;;;;;;7.80;2.08;;;6.60;84.60;;;;;;5068314;28;20029;-80
2022/01/20 01:20:55;;;;;;;7.72;1.90;;;6.60;84.50;;;;;;5059670;28;20036;-79
2022/01/20 01:23:19;;;;;;;5.40;2.13;;;6.50;84.50;;;;;;5066792;28;20110;-78
2022/01/20 01:25:44;;;;;;;5.05;1.60;;;6.50;84.40;;;;;;5067573;28;20462;-79
2022/01/20 01:28:10;;;;;;;5.55;1.50;;;6.50;84.50;;;;;;5072288;28;20509;-80
2022/01/20 01:33:19;;;;;;;7.43;2.10;;;6.50;84.40;;;;;;5062909;28;20360;-81
2022/01/20 01:35:54;;;;;;;8.18;2.10;;;6.40;84.40;;;;;;5070221;28;20051;-82
2022/01/20 01:38:25;;;;;;;6.60;1.58;;;6.50;84.40;;;;;;5070463;28;20020;-82
2022/01/20 01:40:51;;;;;;;7.07;1.85;;;6.40;84.30;;;;;;5056582;28;20482;-81
2022/01/20 01:43:25;;;;;;;9.25;1.85;;;6.40;84.30;;;;;;5063619;28;20028;-82
2022/01/20 01:45:51;;;;;;;6.93;1.67;;;6.50;84.40;;;;;;5068060;28;20437;-81
2022/01/20 01:48:17;;;;;;;6.18;1.90;;;6.40;84.30;;;;;;5070380;28;20013;-81
2022/01/20 01:50:43;;;;;;;8.00;2.33;;;6.50;84.40;;;;;;5062517;28;20479;-79
2022/01/20 01:53:08;;;;;;;5.65;1.58;;;6.40;84.20;;;;;;5063100;28;20040;-80
2022/01/20 01:55:35;;;;;;;9.35;2.00;;;6.50;84.20;;;;;;5055815;28;20435;-80
2022/01/20 01:58:01;;;;;;;7.63;1.90;;;6.50;84.30;;;;;;5053336;28;20411;-81
2022/01/20 02:00:27;;;;;;;8.43;2.13;;;6.50;84.30;;;;;;5064369;28;20017;-82
2022/01/20 02:02:53;;;;;;;7.22;1.90;;;6.50;84.30;;;;;;5066006;28;20090;-80
2022/01/20 02:05:19;;;;;;;8.05;1.70;;;6.50;84.20;;;;;;5060513;28;20043;-81
2022/01/20 02:18:55;;;;;;;9.20;1.95;;;6.60;83.90;;;;;;5068363;28;20043;-80
2022/01/20 02:21:21;;;;;;;6.70;1.65;;;6.60;83.90;;;;;;5068030;28;20025;-81
2022/01/20 02:23:48;;;;;;;6.93;2.08;;;6.60;83.90;;;;;;5055129;28;20045;-81
2022/01/20 02:26:14;;;;;;;6.47;1.80;;;6.50;84.00;;;;;;5075022;28;20024;-79
2022/01/20 02:28:40;;;;;;;10.27;2.00;;;6.50;84.00;;;;;;5075979;28;20028;-80
2022/01/20 02:31:06;;;;;;;9.35;2.28;;;6.50;84.10;;;;;;5065487;28;20021;-80
2022/01/20 02:33:32;;;;;;;6.95;1.75;;;6.50;84.10;;;;;;5065076;28;20051;-81
2022/01/20 02:36:06;;;;;;;4.50;1.33;;;6.50;84.20;;;;;;5069852;28;20395;-81
2022/01/20 02:38:39;;;;;;;6.82;1.80;;;6.50;84.20;;;;;;5062318;28;20171;-79
2022/01/20 02:46:34;;;;;;;5.05;1.63;;;6.40;84.10;;;;;;5066463;28;20063;-82
2022/01/20 02:49:00;;;;;;;8.35;2.20;;;6.40;84.10;;;;;;5057356;28;20028;-79
2022/01/20 02:51:26;;;;;;;10.77;2.30;;;6.40;84.10;;;;;;5067284;28;20016;-80
2022/01/20 02:53:52;;;;;;;9.40;2.08;;;6.30;84.10;;;;;;5060518;28;20043;-79
2022/01/20 02:56:18;;;;;;;9.05;1.95;;;6.30;84.10;;;;;;5065170;28;20050;-79
2022/01/20 02:58:44;;;;;;;9.38;1.73;;;6.30;84.20;;;;;;5070974;28;20379;-80
2022/01/20 03:01:10;;;;;;;5.97;1.73;;;6.30;84.10;;;;;;5066286;28;20085;-80
2022/01/20 03:03:35;;;;;;;7.85;1.48;;;6.30;84.10;;;;;;5071389;28;20398;-80
2022/01/20 03:06:02;;;;;;;7.70;1.83;;;6.30;84.00;;;;;;5070376;28;20043;-80
2022/01/20 03:08:28;;;;;;;6.97;2.10;;;6.30;84.00;;;;;;5069202;28;20031;-81
2022/01/20 03:10:53;;;;;;;8.77;1.50;;;6.30;84.10;;;;;;5071437;28;20029;-80
2022/01/20 03:13:19;;;;;;;4.60;1.60;;;6.30;84.00;;;;;;5072179;28;20206;-80
2022/01/20 03:15:45;;;;;;;7.53;1.73;;;6.40;84.00;;;;;;5072181;28;20501;-81
2022/01/20 03:18:11;;;;;;;8.80;2.05;;;6.40;84.00;;;;;;5066318;28;20074;-80
2022/01/20 03:20:37;;;;;;;9.82;1.70;;;6.40;83.80;;;;;;5065448;28;20032;-80
2022/01/20 03:23:03;;;;;;;6.15;1.70;;;6.40;84.40;;;;;;5066063;28;20024;-80
2022/01/20 03:25:29;;;;;;;9.10;2.00;;;6.40;83.60;;;;;;5068984;28;20016;-80
2022/01/20 03:27:55;;;;;;;8.68;2.00;;;6.40;83.60;;;;;;5071905;28;20086;-80
2022/01/20 03:30:21;;;;;;;8.88;2.22;;;6.40;83.70;;;;;;5070967;28;20463;-80
2022/01/20 03:32:47;;;;;;;8.88;1.70;;;6.30;83.60;;;;;;5064561;28;20029;-81
2022/01/20 03:35:13;;;;;;;6.65;1.55;;;6.30;83.60;;;;;;5071796;28;20029;-79
2022/01/20 03:37:39;;;;;;;7.10;1.88;;;6.30;83.70;;;;;;5070552;28;20106;-80
2022/01/20 03:40:06;;;;;;;7.45;1.70;;;6.30;83.70;;;;;;5068793;28;20020;-80
2022/01/20 03:42:32;;;;;;;8.23;1.58;;;6.30;83.70;;;;;;5068521;28;20103;-79
2022/01/20 03:44:57;;;;;;;7.65;2.25;;;6.30;83.70;;;;;;5071729;28;20104;-79
2022/01/20 03:47:25;;;;;;;8.10;1.85;;;6.30;83.80;;;;;;5071389;28;20029;-80
2022/01/20 03:52:26;;;;;;;7.75;1.65;;;6.30;83.90;;;;;;5071473;28;20025;-79
2022/01/20 03:54:51;;;;;;;7.35;1.90;;;6.30;84.00;;;;;;5066263;28;20021;-80
2022/01/20 03:57:18;;;;;;;5.20;1.75;;;6.30;84.00;;;;;;5066120;28;20590;-80
2022/01/20 03:59:44;;;;;;;7.35;1.60;;;6.30;84.00;;;;;;5062350;28;20526;-80
2022/01/20 04:02:10;;;;;;;6.50;1.75;;;6.30;84.10;;;;;;5069225;28;20031;-79
2022/01/20 04:04:35;;;;;;;5.53;1.60;;;6.30;84.00;;;;;;5062861;28;20029;-81
2022/01/20 04:07:01;;;;;;;6.47;1.80;;;6.40;83.90;;;;;;5071895;28;20399;-80
2022/01/20 04:09:27;;;;;;;7.15;1.67;;;6.30;84.00;;;;;;5063722;28;20063;-81
2022/01/20 04:11:53;;;;;;;5.97;1.60;;;6.40;84.10;;;;;;5060560;28;20036;-80
2022/01/20 04:14:21;;;;;;;6.65;1.25;;;6.30;84.00;;;;;;5057856;28;20040;-82
2022/01/20 04:17:21;;;;;;;6.35;1.38;;;6.30;84.00;;;;;;5067509;28;20024;-81
2022/01/20 04:19:38;;;;;;;7.22;1.50;;;6.30;84.00;;;;;;5067589;28;20035;-81
2022/01/20 04:22:05;;;;;;;5.93;1.70;;;6.30;83.80;;;;;;5069386;28;20032;-81
2022/01/20 04:24:30;;;;;;;7.72;1.60;;;6.30;83.80;;;;;;5067369;28;20229;-80
2022/01/20 04:26:56;;;;;;;5.05;1.60;;;6.20;83.70;;;;;;5068984;28;20028;-80
2022/01/20 04:29:22;;;;;;;8.68;1.70;;;6.20;83.70;;;;;;5069261;28;20024;-79
2022/01/20 04:31:50;;;;;;;7.57;1.55;;;6.20;83.70;;;;;;5077931;28;20395;-80
2022/01/20 04:34:15;;;;;;;7.80;1.95;;;6.20;83.60;;;;;;5068385;28;20028;-81
2022/01/20 04:36:44;;;;;;;7.47;1.67;;;6.20;83.50;;;;;;5071061;28;20047;-79
2022/01/20 04:39:14;;;;;;;7.47;1.67;;;6.10;83.30;;;;;;5061222;28;20099;-79
2022/01/20 04:41:40;;;;;;;6.53;2.20;;;6.10;83.30;;;;;;5067487;28;20025;-79
2022/01/20 04:44:11;;;;;;;5.38;1.25;;;6.10;83.30;;;;;;5063484;28;20032;-79
2022/01/20 04:46:48;;;;;;;9.13;2.22;;;6.20;83.30;;;;;;5067553;28;20026;-79
2022/01/20 04:57:28;;;;;;;7.70;1.83;;;6.20;83.10;;;;;;5068661;28;20031;-81
2022/01/20 04:59:54;;;;;;;6.40;1.67;;;6.20;83.10;;;;;;5065963;28;20425;-80
2022/01/20 05:02:22;;;;;;;5.50;1.70;;;6.20;83.00;;;;;;5067786;28;20428;-81
2022/01/20 05:04:47;;;;;;;6.82;1.95;;;6.20;82.90;;;;;;5058401;28;20545;-81
2022/01/20 05:07:21;;;;;;;8.73;2.10;;;6.20;82.90;;;;;;5065397;28;20021;-80
2022/01/20 05:09:47;;;;;;;6.93;1.85;;;6.20;82.80;;;;;;5068070;28;20592;-79
2022/01/20 05:12:16;;;;;;;7.65;1.48;;;6.20;82.80;;;;;;5065799;28;20047;-80
2022/01/20 05:14:42;;;;;;;6.45;1.55;;;6.20;82.80;;;;;;5067651;28;20033;-80
2022/01/20 05:17:07;;;;;;;7.82;1.90;;;6.20;82.80;;;;;;5066662;28;20537;-81
2022/01/20 05:19:33;;;;;;;8.45;1.70;;;6.20;82.80;;;;;;5066667;28;20032;-80
2022/01/20 05:21:59;;;;;;;6.10;1.73;;;6.20;82.70;;;;;;5068701;28;20023;-80
2022/01/20 05:24:25;;;;;;;5.25;1.40;;;6.20;82.70;;;;;;5063684;28;20024;-81
2022/01/20 05:26:54;;;;;;;8.60;1.90;;;6.20;82.70;;;;;;5086279;28;20422;-80
2022/01/20 05:29:20;;;;;;;5.75;1.55;;;6.20;82.80;;;;;;5058841;28;20052;-79
2022/01/20 05:31:46;;;;;;;7.68;1.83;;;6.20;82.70;;;;;;5059906;28;20090;-80
2022/01/20 05:34:11;;;;;;;7.15;1.63;;;6.20;82.70;;;;;;5067696;28;20028;-81
2022/01/20 05:36:37;;;;;;;10.20;1.95;;;6.20;82.80;;;;;;5067476;28;20552;-80
2022/01/20 05:39:04;;;;;;;7.10;1.50;;;6.20;82.80;;;;;;5056216;28;20029;-81
2022/01/20 05:41:30;;;;;;;10.30;1.92;;;6.10;82.60;;;;;;5066934;28;20024;-79
2022/01/20 05:43:56;;;;;;;7.97;1.60;;;6.10;82.50;;;;;;5061632;28;20032;-80
2022/01/20 05:46:25;;;;;;;9.98;2.10;;;6.10;82.40;;;;;;5063954;28;20422;-81
2022/01/20 05:48:51;;;;;;;7.82;2.10;;;6.10;82.10;;;;;;5064336;28;20055;-81
2022/01/20 05:51:18;;;;;;;7.80;2.10;;;6.10;82.10;;;;;;5064523;28;20036;-79
2022/01/20 05:53:44;;;;;;;10.95;2.10;;;6.10;81.90;;;;;;5068534;28;20046;-80
2022/01/20 05:56:09;;;;;;;6.68;1.70;;;6.10;81.70;;;;;;5068092;28;20541;-80
2022/01/20 05:58:36;;;;;;;12.93;2.85;;;6.00;81.40;;;;;;5059399;28;20046;-81
2022/01/20 06:01:06;;;;;;;8.13;2.30;;;6.10;81.20;;;;;;5065176;28;20161;-81
2022/01/20 06:03:38;;;;;;;10.80;2.20;;;6.00;81.00;;;;;;5061672;28;20025;-81
2022/01/20 06:06:05;;;;;;;8.63;2.50;;;6.00;80.70;;;;;;5059793;28;20025;-81
2022/01/20 06:08:32;;;;;;;9.80;2.00;;;6.00;80.50;;;;;;5061143;28;20099;-80
2022/01/20 06:10:58;;;;;;;9.30;2.00;;;6.00;80.50;;;;;;5065257;28;20021;-81
2022/01/20 06:13:23;;;;;;;9.10;1.92;;;6.00;80.40;;;;;;5064893;28;20082;-80
2022/01/20 06:15:49;;;;;;;10.95;2.08;;;6.00;80.30;;;;;;5063649;28;20036;-81
2022/01/20 06:18:15;;;;;;;11.82;2.55;;;6.00;80.10;;;;;;5059852;28;20109;-81
2022/01/20 06:20:41;;;;;;;11.88;2.25;;;6.00;79.90;;;;;;5059765;28;20029;-81
2022/01/20 06:23:08;;;;;;;11.95;2.45;;;6.00;79.70;;;;;;5058160;28;20044;-81
2022/01/20 06:25:34;;;;;;;10.00;2.08;;;6.00;79.40;;;;;;5068106;28;20028;-81
2022/01/20 06:28:01;;;;;;;8.75;2.17;;;6.00;79.30;;;;;;5064325;28;20069;-80
2022/01/20 06:30:26;;;;;;;9.90;1.92;;;6.00;79.10;;;;;;5067935;28;20498;-78
2022/01/20 06:32:53;;;;;;;13.00;2.78;;;6.00;79.00;;;;;;5065509;28;20017;-79
2022/01/20 06:35:19;;;;;;;12.13;2.50;;;6.00;79.00;;;;;;5060006;28;20043;-79
2022/01/20 06:37:44;;;;;;;6.90;1.70;;;6.00;77.20;;;;;;5064781;28;20107;-80
2022/01/20 06:40:11;;;;;;;8.43;1.90;;;5.90;77.10;;;;;;5071287;28;20119;-80
2022/01/20 06:42:37;;;;;;;5.97;1.65;;;5.90;77.00;;;;;;5069335;28;20031;-79
2022/01/20 06:45:09;;;;;;;9.25;1.90;;;5.90;77.00;;;;;;5064319;28;20031;-81
2022/01/20 06:47:35;;;;;;;9.18;1.98;;;5.90;76.60;;;;;;5066644;28;20028;-81
2022/01/20 06:50:01;;;;;;;14.35;2.13;;;5.90;76.10;;;;;;5062682;28;20120;-81
2022/01/20 06:52:28;;;;;;;11.45;1.95;;;5.90;75.70;;;;;;5061211;28;20139;-81
2022/01/20 06:54:54;;;;;;;6.93;1.80;;;5.80;75.30;;;;;;5063082;28;20077;-80
2022/01/20 06:57:20;;;;;;;8.20;1.85;;;5.80;74.70;;;;;;5057449;28;20379;-78
2022/01/20 06:59:46;;;;;;;6.63;1.80;;;5.60;73.70;;;;;;5068388;28;20047;-90
2022/01/20 07:02:12;;;;;;;8.02;2.10;;;5.50;73.60;;;;;;5064803;28;20593;-81
2022/01/20 07:04:38;;;;;;;4.47;1.50;;;5.30;74.20;;;;;;5063283;28;20024;-79
2022/01/20 07:07:04;;;;;;;3.65;1.25;;;5.20;74.70;;;;;;5063093;28;20102;-78
2022/01/20 07:09:31;;;;;;;5.82;1.38;;;5.10;75.20;;;;;;5076542;28;20052;-79
2022/01/20 07:11:57;;;;;;;8.40;1.40;;;5.10;75.70;;;;;;5064248;28;20169;-79
2022/01/20 07:14:22;;;;;;;5.53;1.45;;;5.10;76.10;;;;;;5071961;28;20033;-78
2022/01/20 07:16:48;;;;;;;5.85;1.38;;;5.10;76.30;;;;;;5070869;28;20452;-78
2022/01/20 07:19:15;;;;;;;6.18;1.45;;;5.10;76.40;;;;;;5063694;28;20676;-79
2022/01/20 07:21:42;;;;;;;2.20;1.05;;;5.10;76.50;;;;;;5065344;28;20382;-78
2022/01/20 07:24:08;;;;;;;5.95;1.70;;;5.10;76.60;;;;;;5064121;28;20032;-79
2022/01/20 07:26:33;;;;;;;4.00;1.25;;;5.00;76.40;;;;;;5060144;28;20392;-80
2022/01/20 07:28:59;;;;;;;3.08;1.20;;;5.00;76.60;;;;;;5058896;28;20044;-78
2022/01/20 07:31:25;;;;;;;4.05;1.67;;;4.90;76.80;;;;;;5059375;28;20024;-79
2022/01/20 07:33:50;;;;;;;4.95;1.30;;;5.00;76.90;;;;;;5063488;28;20105;-79
2022/01/20 07:36:16;;;;;;;4.38;1.60;;;5.00;77.00;;;;;;5063301;28;20040;-77
2022/01/20 07:38:43;;;;;;;3.92;1.27;;;5.00;77.00;;;;;;5068103;28;20024;-79
2022/01/20 07:41:09;;;;;;;4.65;1.30;;;4.90;77.10;;;;;;5057824;28;20077;-76
2022/01/20 07:43:35;;;;;;;3.60;1.27;;;4.90;77.10;;;;;;5067466;28;20044;-77
2022/01/20 07:46:00;;;;;;;5.07;1.20;;;5.00;77.10;;;;;;5067259;28;20020;-78
2022/01/20 07:48:26;;;;;;;3.72;1.13;;;4.90;77.10;;;;;;5061078;28;20055;-77
2022/01/20 07:50:52;;;;;;;4.03;0.98;;;5.00;77.10;;;;;;5063438;28;20060;-78
2022/01/20 07:53:17;;;;;;;6.05;1.70;;;5.00;77.10;;;;;;5066648;28;20036;-78
2022/01/20 07:55:43;;;;;;;3.25;1.15;;;5.00;77.10;;;;;;5058176;28;20017;-78
2022/01/20 07:58:09;;;;;;;6.05;1.50;;;5.00;77.10;;;;;;5069203;28;20107;-78
2022/01/20 08:00:34;;;;;;;4.53;1.15;;;5.00;77.00;;;;;;5054706;28;20113;-76
2022/01/20 08:03:00;;;;;;;7.22;2.20;;;5.00;77.00;;;;;;5058666;28;20092;-80
2022/01/20 08:05:25;;;;;;;3.60;1.27;;;5.00;76.90;;;;;;5052944;28;20036;-78
2022/01/20 08:07:51;;;;;;;5.97;1.42;;;5.10;77.00;;;;;;5058035;28;20028;-82
2022/01/20 08:10:17;;;;;;;3.85;1.40;;;5.10;76.90;;;;;;5057277;28;20029;-83
2022/01/20 08:12:43;;;;;;;5.55;1.45;;;5.10;76.90;;;;;;5068939;28;20024;-82
2022/01/20 08:15:12;;;;;;;6.35;1.40;;;5.10;76.80;;;;;;5058867;28;20028;-80
2022/01/20 08:17:38;;;;;;;4.38;1.50;;;5.10;76.80;;;;;;5067364;28;20032;-81
2022/01/20 08:20:05;;;;;;;4.88;1.27;;;5.10;76.80;;;;;;5060888;28;20025;-82
2022/01/20 08:22:34;;;;;;;3.70;1.40;;;5.20;76.80;;;;;;5025779;28;1058164;-81
2022/01/20 08:25:01;;;;;;;6.45;1.77;;;5.20;76.80;;;;;;5061763;28;20362;-82
2022/01/20 08:27:26;;;;;;;4.47;1.20;;;5.20;76.80;;;;;;5074343;28;20565;-84
2022/01/20 08:29:52;;;;;;;4.95;1.38;;;5.30;76.90;;;;;;5076922;28;20104;-83
2022/01/20 08:32:18;;;;;;;5.60;1.52;;;5.30;76.80;;;;;;5068759;28;20056;-80
2022/01/20 08:34:43;;;;;;;3.72;1.40;;;5.30;76.70;;;;;;5064412;28;20044;-78
2022/01/20 08:37:09;;;;;;;6.20;1.40;;;5.30;76.70;;;;;;5062311;28;20403;-81
2022/01/20 08:42:03;;;;;;;6.93;1.50;;;5.40;76.70;;;;;;5073374;28;20428;-80
2022/01/20 08:44:28;;;;;;;5.95;1.50;;;5.40;76.70;;;;;;5062691;28;20016;-79
2022/01/20 08:46:54;;;;;;;5.15;1.25;;;5.40;76.70;;;;;;5063543;28;20519;-81
2022/01/20 08:49:20;;;;;;;5.30;1.40;;;5.40;76.80;;;;;;5055236;28;20601;-80
2022/01/20 08:51:46;;;;;;;5.43;1.50;;;5.40;76.80;;;;;;5069514;28;20045;-82
2022/01/20 08:54:13;;;;;;;5.93;1.58;;;5.50;76.90;;;;;;5056889;28;20148;-82
2022/01/20 08:56:39;;;;;;;3.85;1.63;;;5.50;76.90;;;;;;5061158;28;20031;-83
2022/01/20 08:59:06;;;;;;;5.38;1.30;;;5.50;76.90;;;;;;5063906;28;20032;-82
2022/01/20 09:01:36;;;;;;;10.48;1.50;;;5.60;76.80;;;;;;5069936;28;20024;-82
2022/01/20 09:04:02;;;;;;;4.72;1.50;;;5.60;76.70;;;;;;5066443;28;20048;-80
2022/01/20 09:06:28;;;;;;;7.97;1.77;;;5.60;76.70;;;;;;5069494;28;20024;-81
2022/01/20 09:08:54;;;;;;;5.57;1.60;;;5.70;76.70;;;;;;5068949;28;20034;-77
2022/01/20 09:11:22;;;;;;;6.72;1.45;;;5.60;76.50;;;;;;5059621;28;20033;-78
2022/01/20 09:16:34;;;;;;;5.55;1.70;;;5.40;76.40;;;;;;5062834;28;20670;-81
2022/01/20 09:19:00;;;;;;;4.90;1.42;;;5.40;76.50;;;;;;5062095;28;20071;-79
2022/01/20 09:21:27;;;;;;;3.80;1.30;;;5.30;76.60;;;;;;5058891;28;20680;-81
2022/01/20 09:23:53;;;;;;;6.63;1.63;;;5.20;76.70;;;;;;5069322;28;20514;-77
2022/01/20 09:26:19;;;;;;;5.25;1.58;;;5.10;76.80;;;;;;5068559;28;20032;-81
2022/01/20 09:28:44;;;;;;;6.47;1.58;;;5.10;77.00;;;;;;5069305;28;20032;-81
2022/01/20 09:31:11;;;;;;;4.00;1.70;;;5.10;77.10;;;;;;5062434;28;20028;-80
2022/01/20 09:33:39;;;;;;;6.15;1.60;;;5.10;77.30;;;;;;5059866;28;20045;-78
2022/01/20 09:36:10;;;;;;;5.75;1.77;;;5.10;77.40;;;;;;5060513;28;20951;-80
2022/01/20 09:38:35;;;;;;;5.55;1.42;;;5.10;77.30;;;;;;5059957;28;20531;-81
2022/01/20 09:41:02;;;;;;;5.75;1.42;;;5.10;77.50;;;;;;5071757;28;20025;-80
2022/01/20 09:43:27;;;;;;;5.47;1.40;;;5.00;77.50;;;;;;5068947;28;20074;-81
2022/01/20 09:45:55;;;;;;;6.88;1.60;;;5.00;77.60;;;;;;5069488;28;20429;-81
2022/01/20 09:48:22;;;;;;;6.10;1.40;;;5.00;77.70;;;;;;5069201;28;20450;-80
2022/01/20 09:50:49;;;;;;;4.60;1.30;;;5.00;77.70;;;;;;5067516;28;20024;-79
2022/01/20 09:53:16;;;;;;;6.05;1.65;;;5.10;77.90;;;;;;5071155;28;20067;-81
2022/01/20 09:55:42;;;;;;;5.63;1.50;;;5.00;77.80;;;;;;5073242;28;20036;-81
2022/01/20 09:58:09;;;;;;;7.30;2.03;;;5.00;77.90;;;;;;5077323;28;20027;-78
2022/01/20 10:00:37;;;;;;;6.00;1.77;;;5.00;78.00;;;;;;5070179;28;20029;-79
2022/01/20 10:03:09;;;;;;;5.32;1.52;;;5.00;78.10;;;;;;5062599;28;20394;-78
2022/01/20 10:05:41;;;;;;;4.93;1.60;;;5.00;78.10;;;;;;5060952;28;20025;-77
2022/01/20 10:08:16;;;;;;;5.82;1.60;;;5.10;78.20;;;;;;5057181;28;20384;-79
2022/01/20 10:11:05;;;;;;;7.07;1.80;;;5.20;78.20;;;;;;5062065;28;20020;-81
2022/01/20 10:13:33;;;;;;;6.68;1.83;;;5.20;78.20;;;;;;5061525;28;20391;-77
2022/01/20 10:16:17;;;;;;;9.43;1.77;;;5.10;78.10;;;;;;5066742;28;20517;-78
2022/01/20 10:19:00;;;;;;;8.52;2.08;;;5.20;78.20;;;;;;5058122;28;20074;-77
2022/01/20 10:21:31;;;;;;;4.60;1.50;;;5.20;78.20;;;;;;5065471;28;20039;-77
2022/01/20 10:24:05;;;;;;;5.07;1.90;;;5.30;78.20;;;;;;5053055;28;20573;-78
2022/01/20 10:26:30;;;;;;;9.02;2.83;;;5.40;78.10;;;;;;5066084;28;20021;-76
2022/01/20 10:29:04;;;;;;;6.95;1.85;;;5.40;77.90;;;;;;5061539;28;20054;-78
2022/01/20 10:31:49;;;;;;;6.18;1.85;;;5.40;77.70;;;;;;5066993;28;20113;-79
2022/01/20 10:34:30;;;;;;;8.55;1.92;;;5.40;77.70;;;;;;5059341;28;20517;-77
2022/01/20 10:36:59;;;;;;;9.00;2.50;;;5.40;77.60;;;;;;5063816;28;20487;-78
2022/01/20 10:39:42;;;;;;;5.22;1.88;;;5.40;77.60;;;;;;5055497;28;20029;-80
2022/01/20 10:42:10;;;;;;;6.13;1.80;;;5.40;77.60;;;;;;5058527;28;20046;-77
2022/01/20 10:44:47;;;;;;;10.23;1.75;;;5.40;77.70;;;;;;5065641;28;20025;-82
2022/01/20 10:47:14;;;;;;;5.30;2.00;;;5.50;77.70;;;;;;5057321;28;20021;-84
2022/01/20 10:49:41;;;;;;;9.25;2.33;;;5.60;77.70;;;;;;5060057;28;20028;-78
2022/01/20 10:52:09;;;;;;;9.05;2.17;;;5.60;77.60;;;;;;5067319;28;20024;-80
2022/01/20 10:54:41;;;;;;;6.57;2.00;;;5.60;77.50;;;;;;5064747;28;20109;-79
2022/01/20 10:57:11;;;;;;;7.93;2.20;;;5.70;77.50;;;;;;5067247;28;20403;-80
2022/01/20 10:59:51;;;;;;;6.60;1.95;;;5.70;77.30;;;;;;5058740;28;20033;-81
2022/01/20 11:02:19;;;;;;;10.25;2.08;;;5.70;77.30;;;;;;5062933;28;20046;-79
2022/01/20 11:04:45;;;;;;;6.45;1.88;;;5.70;77.20;;;;;;5057555;28;20025;-78
2022/01/20 11:07:11;;;;;;;8.75;1.90;;;5.80;77.10;;;;;;5059443;28;20048;-79
2022/01/20 11:09:42;;;;;;;7.95;1.90;;;5.80;77.00;;;;;;5063008;28;20032;-81
2022/01/20 11:12:11;;;;;;;6.63;1.90;;;5.90;76.90;;;;;;5063408;28;20128;-80
2022/01/20 11:14:36;;;;;;;7.57;2.38;;;6.00;76.60;;;;;;5067322;28;20071;-78
2022/01/20 11:17:03;;;;;;;5.43;1.60;;;6.00;76.00;;;;;;5064435;28;20432;-79
2022/01/20 11:19:36;;;;;;;7.18;2.00;;;6.00;75.40;;;;;;5060812;28;20036;-77
2022/01/20 11:22:09;;;;;;;8.38;2.15;;;5.90;75.00;;;;;;5064593;28;20537;-82
2022/01/20 11:24:36;;;;;;;7.40;2.05;;;6.00;74.90;;;;;;5069217;28;20029;-81
2022/01/20 11:27:03;;;;;;;6.97;2.00;;;6.00;74.40;;;;;;5074943;28;20020;-79
2022/01/20 11:29:40;;;;;;;6.07;2.10;;;6.00;73.40;;;;;;5064549;28;20541;-79
2022/01/20 11:32:26;;;;;;;8.73;1.88;;;6.10;73.30;;;;;;5059608;28;20108;-80
2022/01/20 11:34:58;;;;;;;7.38;2.03;;;6.10;73.30;;;;;;5074180;28;20041;-82
2022/01/20 11:37:25;;;;;;;7.50;1.80;;;6.20;72.80;;;;;;5074539;28;20070;-82
2022/01/20 11:39:53;;;;;;;10.00;1.80;;;6.20;72.50;;;;;;5059976;28;20494;-83
2022/01/20 11:42:25;;;;;;;4.63;1.42;;;6.20;72.40;;;;;;5075792;28;20047;-80
2022/01/20 11:44:51;;;;;;;6.47;1.65;;;6.20;72.40;;;;;;5063352;28;20025;-81
2022/01/20 11:47:17;;;;;;;3.22;1.23;;;6.30;72.50;;;;;;5071867;28;20027;-81
2022/01/20 11:49:45;;;;;;;7.30;1.83;;;6.30;72.40;;;;;;5060040;28;20419;-81
2022/01/20 11:52:23;;;;;;;4.43;1.70;;;6.30;71.70;;;;;;5057279;28;20021;-82
2022/01/20 11:54:49;;;;;;;6.32;1.40;;;6.10;71.90;;;;;;5064788;28;20033;-82
2022/01/20 11:57:28;;;;;;;5.90;1.50;;;6.10;71.90;;;;;;5058887;28;20506;-80
2022/01/20 11:59:59;;;;;;;4.70;1.30;;;5.70;72.70;;;;;;5060311;28;20036;-78
2022/01/20 12:02:34;;;;;;;3.42;1.10;;;5.40;73.60;;;;;;5062288;28;20012;-80
2022/01/20 12:05:01;;;;;;;4.85;1.40;;;5.10;74.90;;;;;;5058458;28;20025;-79
2022/01/20 12:07:29;;;;;;;2.30;1.02;;;4.90;75.80;;;;;;5065493;28;20032;-81
2022/01/20 12:10:11;;;;;;;3.80;1.10;;;4.80;76.50;;;;;;5057457;28;20020;-82
2022/01/20 12:12:39;;;;;;;3.63;1.50;;;4.70;77.00;;;;;;5081206;28;20059;-80
2022/01/20 12:15:14;;;;;;;2.90;1.30;;;4.70;77.30;;;;;;5065979;28;20036;-79
2022/01/20 12:17:41;;;;;;;2.85;0.98;;;4.70;77.80;;;;;;5059544;28;20445;-81
2022/01/20 12:20:09;;;;;;;2.80;1.15;;;4.80;78.40;;;;;;5055663;28;20025;-80
2022/01/20 12:22:42;;;;;;;3.08;0.93;;;5.00;79.00;;;;;;5063577;28;20021;-79
2022/01/20 12:25:14;;;;;;;4.45;1.25;;;5.10;79.10;;;;;;5062921;28;20028;-78
2022/01/20 12:27:42;;;;;;;3.88;1.23;;;5.40;78.90;;;;;;5059389;28;20029;-78
2022/01/20 12:30:22;;;;;;;2.90;1.30;;;5.50;78.40;;;;;;5067091;28;20028;-83
2022/01/20 12:33:07;;;;;;;4.38;1.30;;;5.60;77.90;;;;;;5069171;28;20054;-80
2022/01/20 12:35:41;;;;;;;3.78;1.25;;;5.70;78.00;;;;;;5065299;28;20025;-81
2022/01/20 12:38:37;;;;;;;6.28;1.60;;;5.70;78.10;;;;;;5064010;28;20048;-80
2022/01/20 12:41:12;;;;;;;5.32;1.52;;;5.80;78.40;;;;;;5063038;28;20071;-80
2022/01/20 12:43:47;;;;;;;6.43;1.55;;;5.90;78.60;;;;;;5065323;28;20116;-79
2022/01/20 12:46:32;;;;;;;6.18;1.73;;;6.10;78.30;;;;;;5063043;28;20024;-79
2022/01/20 12:49:08;;;;;;;4.90;1.27;;;6.20;77.70;;;;;;5053447;28;20471;-79
2022/01/20 12:51:50;;;;;;;6.78;1.50;;;6.30;77.40;;;;;;5064085;28;20029;-80
2022/01/20 12:54:21;;;;;;;5.53;1.52;;;6.20;76.70;;;;;;5064467;28;20094;-78
2022/01/20 12:56:49;;;;;;;5.95;1.30;;;6.10;76.40;;;;;;5065121;28;20442;-80
2022/01/20 12:59:21;;;;;;;7.75;2.00;;;6.10;76.30;;;;;;5065476;28;20032;-80
2022/01/20 13:01:49;;;;;;;4.60;1.45;;;6.10;76.10;;;;;;5065552;28;20032;-79
2022/01/20 13:04:17;;;;;;;4.75;1.48;;;6.10;76.10;;;;;;5062828;28;20021;-80
2022/01/20 13:06:52;;;;;;;7.53;1.65;;;6.10;76.00;;;;;;5060286;28;20045;-80
2022/01/20 13:09:20;;;;;;;8.95;1.73;;;6.10;75.60;;;;;;5061005;28;20029;-82
2022/01/20 13:11:57;;;;;;;6.38;1.60;;;6.00;75.10;;;;;;5065019;28;20074;-82
2022/01/20 13:14:44;;;;;;;7.75;2.10;;;6.00;74.70;;;;;;5061695;28;20600;-77
2022/01/20 13:17:12;;;;;;;5.57;1.55;;;6.00;74.20;;;;;;5059218;28;20044;-76
2022/01/20 13:19:45;;;;;;;6.75;1.63;;;5.90;74.20;;;;;;5057062;28;20115;-80
2022/01/20 13:22:40;;;;;;;6.07;1.60;;;6.00;74.10;;;;;;5057518;28;20036;-78
2022/01/20 13:25:11;;;;;;;9.50;2.05;;;6.10;73.70;;;;;;5063806;28;20032;-80
2022/01/20 13:27:48;;;;;;;5.63;1.60;;;6.10;73.30;;;;;;5064323;28;20027;-83
2022/01/20 13:30:24;;;;;;;5.10;1.90;;;6.20;73.10;;;;;;5071710;28;20039;-81
2022/01/20 13:32:50;;;;;;;8.88;1.80;;;6.20;72.70;;;;;;5072061;28;20032;-81
2022/01/20 13:35:16;;;;;;;6.28;1.40;;;6.10;72.40;;;;;;5073590;28;20039;-77
2022/01/20 13:37:41;;;;;;;8.25;1.85;;;6.10;72.50;;;;;;5069062;28;20025;-84
2022/01/20 13:40:08;;;;;;;9.23;1.95;;;6.10;72.40;;;;;;5064693;28;20028;-81
2022/01/20 13:45:01;;;;;;;5.38;1.65;;;6.00;71.80;;;;;;5073873;28;20035;-81
2022/01/20 13:45:52;;;;;;;8.80;2.10;;;6.00;71.70;;;;;;5062126;28;20032;-77
2022/01/20 13:48:26;;;;;;;5.82;1.70;;;5.90;71.70;;;;;;5062669;28;20109;-79
2022/01/20 13:50:56;;;;;;;6.72;1.50;;;5.90;71.70;;;;;;5067687;28;20025;-80
2022/01/20 13:53:26;;;;;;;10.88;2.00;;;5.90;71.70;;;;;;5074397;28;20031;-80
2022/01/20 13:55:53;;;;;;;6.72;1.80;;;5.80;71.30;;;;;;5059720;28;20123;-81
2022/01/20 13:58:33;;;;;;;5.70;1.60;;;5.80;71.50;;;;;;5056094;28;20017;-77
2022/01/20 14:01:05;;;;;;;7.18;1.70;;;5.80;71.60;;;;;;5059244;28;20048;-80
2022/01/20 14:03:31;;;;;;;5.15;1.65;;;5.70;71.70;;;;;;5060152;28;20036;-78
2022/01/20 14:05:56;;;;;;;6.88;1.90;;;5.70;71.90;;;;;;5062084;28;20021;-79
2022/01/20 14:08:24;;;;;;;8.13;1.58;;;5.70;71.70;;;;;;5067347;28;20029;-83
2022/01/20 14:10:51;;;;;;;7.15;1.67;;;5.70;71.90;;;;;;5070389;28;20031;-75